Time;durP1;ratioP1;P1;durP2;ratioP2;P2;SDS_P1;SDS_P2;PMS_P1;PMS_P2;Temp;Humidity;BMP_temperature;BMP_pressure;BME280_temperature;BME280_humidity;BME280_pressure;Samples;Min_cycle;Max_cycle;Signal;HPM_P1;HPM_P2
2022/02/25 00:00:06;;;;;;;9.30;2.67;;;2.50;99.90;;;;;;5023163;28;20280;-70
2022/02/25 00:02:35;;;;;;;7.73;2.70;;;2.60;99.90;;;;;;5018961;28;20205;-70
2022/02/25 00:05:09;;;;;;;7.13;2.80;;;2.60;99.90;;;;;;5030857;28;20192;-70
2022/02/25 00:07:38;;;;;;;12.83;2.90;;;2.60;99.90;;;;;;5029016;28;20641;-69
2022/02/25 00:10:08;;;;;;;9.50;2.57;;;2.60;99.90;;;;;;5021496;28;20859;-70
2022/02/25 00:12:37;;;;;;;15.40;3.23;;;2.50;99.90;;;;;;5027103;28;20194;-70
2022/02/25 00:15:06;;;;;;;8.77;2.70;;;2.60;99.90;;;;;;5026648;28;20205;-70
2022/02/25 00:17:35;;;;;;;9.27;2.60;;;2.60;99.90;;;;;;5013570;28;20193;-70
2022/02/25 00:20:06;;;;;;;5.03;2.57;;;2.60;99.90;;;;;;5019720;28;20276;-70
2022/02/25 00:22:35;;;;;;;8.87;2.77;;;2.70;99.90;;;;;;5017795;28;20205;-70
2022/02/25 00:25:04;;;;;;;9.17;3.10;;;2.70;99.90;;;;;;5021826;28;20197;-69
2022/02/25 00:27:33;;;;;;;6.90;2.97;;;2.70;99.90;;;;;;5024319;28;20194;-70
2022/02/25 00:30:01;;;;;;;9.80;2.63;;;2.70;99.90;;;;;;5026935;28;20205;-71
2022/02/25 00:32:30;;;;;;;9.53;3.00;;;2.70;99.90;;;;;;5030755;28;20190;-70
2022/02/25 00:34:58;;;;;;;13.43;2.50;;;2.70;99.90;;;;;;5021028;28;20213;-70
2022/02/25 00:37:28;;;;;;;7.77;2.43;;;2.70;99.90;;;;;;5024360;28;20254;-69
2022/02/25 00:39:57;;;;;;;7.50;2.37;;;2.70;99.90;;;;;;5016302;28;20190;-69
2022/02/25 00:42:25;;;;;;;5.57;2.43;;;2.70;99.90;;;;;;5021658;28;20208;-70
2022/02/25 00:44:54;;;;;;;7.27;2.50;;;2.60;99.90;;;;;;5024037;28;20196;-70
2022/02/25 00:47:23;;;;;;;9.10;2.73;;;2.50;99.90;;;;;;5024821;28;20196;-69
2022/02/25 00:49:53;;;;;;;16.07;2.80;;;2.50;99.90;;;;;;5019206;28;20243;-69
2022/02/25 00:52:22;;;;;;;7.27;2.47;;;2.50;99.90;;;;;;5026010;28;20205;-70
2022/02/25 00:54:52;;;;;;;4.27;2.80;;;2.50;99.90;;;;;;5025770;28;20284;-69
2022/02/25 00:57:21;;;;;;;8.87;2.47;;;2.40;99.90;;;;;;5027187;28;20209;-69
2022/02/25 00:59:49;;;;;;;9.87;2.83;;;2.50;99.90;;;;;;5032532;28;20252;-70
2022/02/25 01:02:18;;;;;;;6.43;2.77;;;2.50;99.90;;;;;;5032293;28;20225;-70
2022/02/25 01:04:47;;;;;;;7.73;2.43;;;2.50;99.90;;;;;;5030786;28;20201;-69
2022/02/25 01:07:16;;;;;;;9.30;2.60;;;2.50;99.90;;;;;;5023732;28;20245;-69
2022/02/25 01:09:46;;;;;;;12.33;2.80;;;2.50;99.90;;;;;;5025884;28;20224;-70
2022/02/25 01:12:16;;;;;;;12.83;2.60;;;2.50;99.90;;;;;;5025338;28;20244;-70
2022/02/25 01:14:44;;;;;;;13.13;2.67;;;2.60;99.90;;;;;;5026298;28;20897;-69
2022/02/25 01:17:12;;;;;;;14.77;2.40;;;2.50;99.90;;;;;;5029161;28;20194;-69
2022/02/25 01:19:41;;;;;;;6.93;2.67;;;2.50;99.90;;;;;;5035270;28;20571;-70
2022/02/25 01:22:10;;;;;;;11.03;2.67;;;2.50;99.90;;;;;;5026127;28;20202;-69
2022/02/25 01:24:39;;;;;;;11.90;2.90;;;2.50;99.90;;;;;;5035711;28;20196;-69
2022/02/25 01:27:08;;;;;;;8.17;2.40;;;2.60;99.90;;;;;;5026966;28;20249;-69
2022/02/25 01:29:38;;;;;;;12.20;2.53;;;2.50;99.90;;;;;;5023379;28;20214;-69
2022/02/25 01:32:07;;;;;;;11.03;2.47;;;2.60;99.90;;;;;;5025484;28;20205;-70
2022/02/25 01:34:36;;;;;;;14.37;2.57;;;2.60;99.90;;;;;;5039076;28;20225;-69
2022/02/25 01:37:05;;;;;;;14.17;2.80;;;2.60;99.90;;;;;;5020525;28;20198;-69
2022/02/25 01:39:34;;;;;;;14.33;3.53;;;2.50;99.90;;;;;;5028727;28;20194;-69
2022/02/25 01:42:05;;;;;;;10.90;2.63;;;2.60;99.90;;;;;;5028438;28;20202;-70
2022/02/25 01:44:33;;;;;;;7.97;2.70;;;2.60;99.90;;;;;;5030441;28;20201;-70
2022/02/25 01:47:04;;;;;;;10.87;2.60;;;2.60;99.90;;;;;;5024027;28;20199;-69
2022/02/25 01:49:33;;;;;;;10.57;2.47;;;2.70;99.90;;;;;;5023948;28;20216;-70
2022/02/25 01:52:04;;;;;;;5.80;2.70;;;2.70;99.90;;;;;;5007655;28;20713;-69
2022/02/25 01:54:32;;;;;;;17.20;3.20;;;2.60;99.90;;;;;;5030608;28;20197;-70
2022/02/25 01:57:02;;;;;;;7.67;2.27;;;2.60;99.90;;;;;;5029481;28;20206;-70
2022/02/25 01:59:32;;;;;;;8.70;2.53;;;2.60;99.90;;;;;;5033993;28;20189;-70
2022/02/25 02:02:00;;;;;;;10.37;2.60;;;2.60;99.90;;;;;;5035986;28;20193;-70
2022/02/25 02:04:30;;;;;;;13.50;2.83;;;2.60;99.90;;;;;;5027833;28;20224;-70
2022/02/25 02:06:59;;;;;;;11.37;2.80;;;2.50;99.90;;;;;;5018008;28;20214;-70
2022/02/25 02:09:28;;;;;;;10.90;2.80;;;2.50;99.90;;;;;;5023046;28;20242;-69
2022/02/25 02:11:57;;;;;;;12.10;2.80;;;2.50;99.90;;;;;;5019719;28;20247;-69
2022/02/25 02:14:26;;;;;;;6.70;2.40;;;2.50;99.90;;;;;;5029035;28;20194;-69
2022/02/25 02:16:57;;;;;;;8.63;2.70;;;2.50;99.90;;;;;;5023043;28;20245;-69
2022/02/25 02:19:28;;;;;;;11.80;2.70;;;2.50;99.90;;;;;;5020669;28;20235;-69
2022/02/25 02:21:59;;;;;;;13.83;2.90;;;2.50;99.90;;;;;;5024104;28;20202;-69
2022/02/25 02:24:28;;;;;;;10.77;3.03;;;2.50;99.90;;;;;;5025598;28;20987;-70
2022/02/25 02:26:57;;;;;;;5.13;2.60;;;2.50;99.90;;;;;;5023632;28;20721;-69
2022/02/25 02:29:26;;;;;;;13.67;2.73;;;2.50;99.90;;;;;;5024450;28;20228;-69
2022/02/25 02:31:54;;;;;;;9.33;2.70;;;2.50;99.90;;;;;;5032685;28;20284;-69
2022/02/25 02:34:22;;;;;;;14.17;3.23;;;2.50;99.90;;;;;;5025514;28;20260;-70
2022/02/25 02:36:51;;;;;;;10.57;2.80;;;2.50;99.90;;;;;;5027557;28;20298;-70
2022/02/25 02:39:20;;;;;;;17.03;3.33;;;2.50;99.90;;;;;;5022134;28;20202;-70
2022/02/25 02:41:49;;;;;;;13.80;2.87;;;2.50;99.90;;;;;;5025386;28;20197;-69
2022/02/25 02:44:18;;;;;;;17.00;3.70;;;2.50;99.90;;;;;;5019084;28;20681;-69
2022/02/25 02:46:46;;;;;;;13.20;2.67;;;2.50;99.90;;;;;;5021901;28;20186;-69
2022/02/25 02:49:15;;;;;;;14.97;2.93;;;2.40;99.90;;;;;;5024375;28;20240;-69
2022/02/25 02:51:43;;;;;;;15.70;3.10;;;2.50;99.90;;;;;;5021600;28;20285;-70
2022/02/25 02:54:12;;;;;;;10.63;2.80;;;2.50;99.90;;;;;;5019123;28;20561;-70
2022/02/25 02:56:40;;;;;;;7.80;2.53;;;2.40;99.90;;;;;;5030777;28;20197;-69
2022/02/25 02:59:10;;;;;;;8.50;2.90;;;2.40;99.90;;;;;;5020503;28;20215;-69
2022/02/25 03:01:40;;;;;;;13.53;2.50;;;2.40;99.90;;;;;;5035427;28;20197;-69
2022/02/25 03:04:09;;;;;;;9.67;2.97;;;2.30;99.90;;;;;;5024711;28;20539;-69
2022/02/25 03:06:38;;;;;;;13.53;2.90;;;2.30;99.90;;;;;;5022755;28;20201;-69
2022/02/25 03:09:09;;;;;;;12.43;2.93;;;2.20;99.90;;;;;;5023996;28;20229;-69
2022/02/25 03:11:38;;;;;;;12.90;3.03;;;2.20;99.90;;;;;;5021170;28;20853;-69
2022/02/25 03:14:06;;;;;;;18.83;2.97;;;2.10;99.90;;;;;;5025542;28;20277;-69
2022/02/25 03:16:36;;;;;;;12.37;2.93;;;2.10;99.90;;;;;;5019659;28;20570;-70
2022/02/25 03:19:05;;;;;;;15.57;3.03;;;2.10;99.90;;;;;;5017734;28;20276;-69
2022/02/25 03:21:33;;;;;;;9.03;3.20;;;2.10;99.90;;;;;;5020553;28;20619;-69
2022/02/25 03:24:01;;;;;;;19.23;3.20;;;2.00;99.90;;;;;;5008115;28;20186;-69
2022/02/25 03:26:30;;;;;;;12.13;2.60;;;2.10;99.90;;;;;;5019374;28;20233;-69
2022/02/25 03:28:58;;;;;;;8.50;2.80;;;2.20;99.90;;;;;;5018942;28;20751;-70
2022/02/25 03:31:27;;;;;;;19.23;3.50;;;2.20;99.90;;;;;;5025486;28;20616;-70
2022/02/25 03:33:57;;;;;;;10.43;3.00;;;2.20;99.90;;;;;;5020076;28;20599;-70
2022/02/25 03:36:25;;;;;;;11.80;2.63;;;2.10;99.90;;;;;;5022515;28;20644;-69
2022/02/25 03:38:54;;;;;;;11.07;2.77;;;2.20;99.90;;;;;;5020253;28;20300;-69
2022/02/25 03:41:22;;;;;;;12.50;2.57;;;2.20;99.90;;;;;;5027244;28;20268;-69
2022/02/25 03:43:52;;;;;;;18.77;2.93;;;2.20;99.90;;;;;;5029264;28;20663;-69
2022/02/25 03:46:20;;;;;;;8.97;2.63;;;2.20;99.90;;;;;;5026891;28;20951;-70
2022/02/25 03:48:50;;;;;;;8.13;2.43;;;2.20;99.90;;;;;;5026252;28;20609;-69
2022/02/25 03:51:23;;;;;;;11.67;2.87;;;2.20;99.90;;;;;;5020242;28;20225;-70
2022/02/25 03:53:52;;;;;;;9.90;2.60;;;2.30;99.90;;;;;;5019803;28;20205;-70
2022/02/25 03:56:23;;;;;;;13.10;2.87;;;2.20;99.90;;;;;;5019710;28;20559;-69
2022/02/25 03:58:52;;;;;;;8.97;2.80;;;2.20;99.90;;;;;;5029045;28;20224;-70
2022/02/25 04:01:21;;;;;;;13.83;2.60;;;2.20;99.90;;;;;;5041524;28;20578;-69
2022/02/25 04:03:50;;;;;;;7.83;2.70;;;2.30;99.90;;;;;;5024292;28;20883;-69
2022/02/25 04:06:19;;;;;;;11.57;2.83;;;2.20;99.90;;;;;;5024370;28;20281;-69
2022/02/25 04:08:49;;;;;;;8.90;2.67;;;2.20;99.90;;;;;;5019953;28;20225;-69
2022/02/25 04:11:19;;;;;;;12.90;3.00;;;2.30;99.90;;;;;;5024636;28;20564;-70
2022/02/25 04:13:47;;;;;;;13.73;3.17;;;2.40;99.90;;;;;;5018454;28;20200;-70
2022/02/25 04:16:16;;;;;;;20.77;3.83;;;2.40;99.90;;;;;;5024553;28;20652;-70
2022/02/25 04:18:45;;;;;;;13.43;3.00;;;2.40;99.90;;;;;;5023721;28;20644;-69
2022/02/25 04:21:14;;;;;;;11.73;3.00;;;2.40;99.90;;;;;;5028337;28;20197;-69
2022/02/25 04:23:42;;;;;;;21.23;2.50;;;2.40;99.90;;;;;;5023479;28;20582;-69
2022/02/25 04:26:12;;;;;;;10.17;2.70;;;2.40;99.90;;;;;;5025052;28;20216;-69
2022/02/25 04:28:40;;;;;;;16.80;3.03;;;2.50;99.90;;;;;;5023038;28;20658;-69
2022/02/25 04:31:09;;;;;;;13.43;3.10;;;2.60;99.90;;;;;;5018963;28;20857;-69
2022/02/25 04:33:37;;;;;;;13.47;2.60;;;2.60;99.90;;;;;;5030904;28;20909;-69
2022/02/25 04:36:06;;;;;;;8.80;2.80;;;2.70;99.90;;;;;;5021778;28;20763;-69
2022/02/25 04:38:35;;;;;;;10.17;3.50;;;2.80;99.90;;;;;;5033215;28;20840;-69
2022/02/25 04:41:04;;;;;;;18.03;3.90;;;2.80;99.90;;;;;;5024520;28;20201;-69
2022/02/25 04:43:34;;;;;;;14.67;2.53;;;2.80;99.90;;;;;;5022195;28;20190;-69
2022/02/25 04:46:02;;;;;;;10.83;2.50;;;2.90;99.90;;;;;;5025962;28;20602;-69
2022/02/25 04:48:31;;;;;;;11.63;3.20;;;3.00;99.90;;;;;;5019049;28;20715;-69
2022/02/25 04:50:59;;;;;;;17.10;3.63;;;3.00;99.90;;;;;;5025263;28;20308;-69
2022/02/25 04:53:28;;;;;;;24.40;3.47;;;3.00;99.90;;;;;;5034208;28;20228;-69
2022/02/25 04:55:56;;;;;;;13.97;2.77;;;3.10;99.90;;;;;;5033832;28;20252;-69
2022/02/25 04:58:25;;;;;;;9.93;2.90;;;3.20;99.90;;;;;;5020998;28;20762;-69
2022/02/25 05:00:55;;;;;;;11.50;2.97;;;3.20;99.90;;;;;;5016508;28;20282;-69
2022/02/25 05:03:24;;;;;;;17.30;3.20;;;3.20;99.90;;;;;;5023726;28;20283;-69
2022/02/25 05:05:53;;;;;;;13.30;2.83;;;3.30;99.90;;;;;;5020921;28;20240;-69
2022/02/25 05:08:21;;;;;;;10.57;2.70;;;3.30;99.90;;;;;;5028899;28;20230;-70
2022/02/25 05:10:50;;;;;;;21.47;3.10;;;3.40;99.90;;;;;;5025667;28;20263;-69
2022/02/25 05:13:19;;;;;;;10.80;3.27;;;3.40;99.90;;;;;;5026515;28;20209;-69
2022/02/25 05:21:23;;;;;;;14.00;3.07;;;3.40;99.90;;;;;;5018844;28;20202;-69
2022/02/25 05:23:52;;;;;;;13.93;3.07;;;3.50;99.90;;;;;;5022263;28;20664;-70
2022/02/25 05:26:22;;;;;;;11.73;2.70;;;3.60;99.90;;;;;;5023038;28;20208;-70
2022/02/25 05:28:50;;;;;;;11.00;2.87;;;3.70;99.90;;;;;;5020753;28;20684;-70
2022/02/25 05:31:19;;;;;;;8.80;2.90;;;3.80;99.90;;;;;;5021759;28;20326;-69
2022/02/25 05:33:53;;;;;;;10.33;2.87;;;3.80;99.90;;;;;;5016550;28;20233;-70
2022/02/25 05:36:22;;;;;;;14.10;2.83;;;3.80;99.90;;;;;;5021228;28;20971;-70
2022/02/25 05:38:50;;;;;;;9.27;2.50;;;3.90;99.90;;;;;;5022814;28;20288;-69
2022/02/25 05:41:18;;;;;;;11.83;2.97;;;3.90;99.90;;;;;;5015719;28;20220;-70
2022/02/25 05:43:48;;;;;;;11.53;2.93;;;3.90;99.90;;;;;;5024839;28;20201;-69
2022/02/25 05:46:16;;;;;;;14.47;2.77;;;3.90;99.90;;;;;;5022223;28;20193;-69
2022/02/25 05:48:45;;;;;;;13.07;3.10;;;3.90;99.90;;;;;;5028130;28;20217;-70
2022/02/25 05:51:16;;;;;;;13.67;3.00;;;4.00;99.90;;;;;;5023890;28;20214;-70
2022/02/25 05:53:44;;;;;;;16.10;3.57;;;3.90;99.90;;;;;;5020087;28;20704;-69
2022/02/25 05:56:12;;;;;;;9.90;3.30;;;4.00;99.90;;;;;;5029118;28;20781;-69
2022/02/25 05:58:41;;;;;;;12.37;2.73;;;3.90;99.90;;;;;;5028869;28;20248;-70
2022/02/25 06:01:09;;;;;;;12.43;2.70;;;3.90;99.90;;;;;;5022058;28;20290;-69
2022/02/25 06:03:38;;;;;;;9.73;2.80;;;3.90;99.90;;;;;;5029180;28;20224;-69
2022/02/25 06:06:07;;;;;;;13.13;2.90;;;3.90;99.90;;;;;;5025405;28;20201;-69
2022/02/25 06:08:37;;;;;;;7.47;2.60;;;3.90;99.90;;;;;;5033561;28;20711;-70
2022/02/25 06:11:05;;;;;;;17.83;3.17;;;3.90;99.90;;;;;;5021802;28;20655;-69
2022/02/25 06:13:34;;;;;;;13.17;2.67;;;3.80;99.90;;;;;;5024443;28;21057;-70
2022/02/25 06:16:03;;;;;;;13.30;3.13;;;3.80;99.90;;;;;;5020446;28;20223;-69
2022/02/25 06:18:33;;;;;;;11.70;3.77;;;3.80;99.90;;;;;;5026994;28;20703;-70
2022/02/25 06:21:02;;;;;;;7.77;2.83;;;3.80;99.90;;;;;;5029598;28;20671;-69
2022/02/25 06:23:30;;;;;;;15.57;2.90;;;3.90;99.90;;;;;;5015067;28;20197;-70
2022/02/25 06:26:00;;;;;;;17.90;2.80;;;3.90;99.90;;;;;;5020038;28;20205;-69
2022/02/25 06:28:30;;;;;;;11.43;2.90;;;4.00;99.90;;;;;;5020927;28;20279;-69
2022/02/25 06:30:58;;;;;;;14.77;2.87;;;4.00;99.90;;;;;;5024387;28;20197;-70
2022/02/25 06:33:27;;;;;;;15.87;2.83;;;4.00;99.90;;;;;;5025452;28;20192;-69
2022/02/25 06:35:55;;;;;;;17.17;3.47;;;4.10;99.90;;;;;;5022539;28;20284;-70
2022/02/25 06:38:25;;;;;;;18.90;3.37;;;4.10;99.90;;;;;;5033919;28;20217;-70
2022/02/25 06:40:55;;;;;;;12.50;2.97;;;4.20;99.90;;;;;;5015741;28;20206;-69
2022/02/25 06:43:25;;;;;;;18.17;3.43;;;4.10;99.90;;;;;;5023136;28;20832;-70
2022/02/25 06:45:53;;;;;;;14.27;3.33;;;4.00;99.90;;;;;;5036653;28;20627;-69
2022/02/25 06:48:22;;;;;;;14.33;3.07;;;4.00;99.90;;;;;;5021930;28;20197;-69
2022/02/25 06:50:50;;;;;;;13.43;3.03;;;4.00;99.90;;;;;;5027660;28;20263;-69
2022/02/25 06:53:19;;;;;;;28.73;3.50;;;4.00;99.90;;;;;;5022228;28;20225;-69
2022/02/25 06:55:47;;;;;;;13.47;2.80;;;4.10;99.90;;;;;;5024369;28;20288;-69
2022/02/25 06:58:17;;;;;;;14.60;3.30;;;4.20;99.90;;;;;;5021060;28;20209;-69
2022/02/25 07:00:47;;;;;;;16.70;3.10;;;4.20;99.90;;;;;;5025553;28;20206;-69
2022/02/25 07:03:16;;;;;;;23.40;3.60;;;4.30;99.90;;;;;;5024870;28;20254;-69
2022/02/25 07:05:44;;;;;;;16.20;3.33;;;4.30;99.90;;;;;;5028428;28;20244;-69
2022/02/25 07:08:15;;;;;;;14.50;3.17;;;4.30;99.90;;;;;;5042380;28;20232;-69
2022/02/25 07:10:43;;;;;;;16.90;3.33;;;4.30;99.90;;;;;;5029354;28;20212;-69
2022/02/25 07:13:12;;;;;;;10.33;3.30;;;4.40;99.90;;;;;;5028382;28;20211;-69
2022/02/25 07:15:41;;;;;;;16.97;3.40;;;4.40;99.90;;;;;;5035177;28;20670;-69
2022/02/25 07:18:11;;;;;;;15.03;3.33;;;4.40;99.90;;;;;;5029331;28;20213;-69
2022/02/25 07:20:40;;;;;;;19.80;3.47;;;4.50;99.90;;;;;;5028357;28;20193;-69
2022/02/25 07:23:09;;;;;;;15.47;3.00;;;4.50;99.90;;;;;;5035098;28;20188;-69
2022/02/25 07:25:38;;;;;;;18.03;4.07;;;4.50;99.90;;;;;;5027742;28;20193;-69
2022/02/25 07:28:07;;;;;;;18.50;3.30;;;4.50;99.90;;;;;;5030055;28;20212;-70
2022/02/25 07:30:37;;;;;;;15.23;2.80;;;4.50;99.90;;;;;;5026945;28;20280;-69
2022/02/25 07:33:06;;;;;;;15.57;3.37;;;4.60;99.90;;;;;;5000719;28;20670;-70
2022/02/25 07:35:36;;;;;;;10.47;2.73;;;4.60;99.90;;;;;;5020165;28;20256;-70
2022/02/25 07:38:05;;;;;;;14.50;3.87;;;4.60;99.90;;;;;;5014676;28;20213;-69
2022/02/25 07:40:34;;;;;;;9.93;3.17;;;4.60;99.90;;;;;;5019970;28;20205;-69
2022/02/25 07:43:02;;;;;;;20.57;3.83;;;4.70;99.90;;;;;;5028280;28;20209;-70
2022/02/25 07:45:31;;;;;;;18.57;3.30;;;4.90;99.90;;;;;;5030136;28;20198;-70
2022/02/25 07:47:59;;;;;;;13.23;3.20;;;5.10;99.90;;;;;;5008480;28;20259;-69
2022/02/25 07:50:28;;;;;;;8.07;3.27;;;5.40;99.90;;;;;;5026922;28;20559;-69
2022/02/25 07:52:58;;;;;;;18.07;3.10;;;5.70;99.90;;;;;;5022256;28;20699;-69
2022/02/25 07:55:30;;;;;;;19.80;3.30;;;6.00;99.90;;;;;;5031120;28;20198;-69
2022/02/25 07:57:58;;;;;;;11.03;3.03;;;6.20;99.90;;;;;;5029593;28;20250;-70
2022/02/25 08:00:30;;;;;;;20.70;3.40;;;6.50;99.90;;;;;;5017891;28;20284;-69
2022/02/25 08:03:00;;;;;;;8.47;2.70;;;6.70;99.90;;;;;;5025091;28;20304;-69
2022/02/25 08:05:31;;;;;;;13.27;3.17;;;6.90;99.90;;;;;;5024291;28;20555;-69
2022/02/25 08:08:03;;;;;;;12.13;2.90;;;6.70;99.90;;;;;;5021911;28;20244;-70
2022/02/25 08:10:32;;;;;;;12.77;3.30;;;6.50;99.90;;;;;;5022356;28;20873;-69
2022/02/25 08:13:02;;;;;;;11.67;3.20;;;6.40;99.90;;;;;;5025836;28;20217;-70
2022/02/25 08:15:33;;;;;;;15.57;3.17;;;6.20;99.90;;;;;;5024572;28;20280;-69
2022/02/25 08:18:02;;;;;;;21.17;4.27;;;6.10;99.90;;;;;;5032931;28;20228;-69
2022/02/25 08:20:32;;;;;;;14.60;3.50;;;6.10;99.90;;;;;;5028493;28;20193;-69
2022/02/25 08:23:03;;;;;;;12.73;3.27;;;6.10;99.90;;;;;;5022016;28;20216;-69
2022/02/25 08:25:36;;;;;;;13.40;3.47;;;6.10;99.90;;;;;;5042328;28;20192;-69
2022/02/25 08:28:06;;;;;;;16.00;3.77;;;6.10;99.90;;;;;;5021137;28;20205;-69
2022/02/25 08:30:36;;;;;;;19.53;4.30;;;6.20;99.90;;;;;;5021918;28;20193;-69
2022/02/25 08:33:05;;;;;;;14.27;3.33;;;6.40;99.90;;;;;;5022743;28;20602;-70
2022/02/25 08:35:37;;;;;;;22.37;3.77;;;6.60;99.90;;;;;;5024396;28;20627;-70
2022/02/25 08:38:07;;;;;;;15.23;3.67;;;6.60;99.90;;;;;;5022056;28;20213;-69
2022/02/25 08:40:38;;;;;;;14.80;3.40;;;6.70;99.90;;;;;;5022269;28;20213;-69
2022/02/25 08:43:06;;;;;;;18.43;3.40;;;6.70;99.90;;;;;;5022716;28;20569;-70
2022/02/25 08:45:35;;;;;;;15.23;3.27;;;6.60;99.90;;;;;;5008660;28;20692;-70
2022/02/25 08:48:04;;;;;;;12.60;2.93;;;6.70;99.90;;;;;;5027163;28;20193;-70
2022/02/25 08:50:33;;;;;;;15.33;3.50;;;7.20;99.90;;;;;;5035257;28;20204;-70
2022/02/25 08:53:01;;;;;;;11.77;3.50;;;7.70;99.90;;;;;;5025444;28;20236;-69
2022/02/25 08:55:32;;;;;;;19.00;3.63;;;8.20;99.90;;;;;;5018641;28;20217;-70
2022/02/25 08:58:04;;;;;;;13.83;3.33;;;8.70;99.90;;;;;;5034752;28;20251;-69
2022/02/25 09:00:32;;;;;;;13.90;3.73;;;9.10;99.90;;;;;;5017718;28;20209;-70
2022/02/25 09:03:01;;;;;;;17.30;4.10;;;9.30;99.90;;;;;;5014299;28;20569;-70
2022/02/25 09:05:30;;;;;;;11.57;3.70;;;9.30;99.90;;;;;;5021816;28;20198;-70
2022/02/25 09:07:58;;;;;;;17.23;4.07;;;9.50;99.90;;;;;;5027037;28;20253;-70
2022/02/25 09:10:27;;;;;;;13.67;3.70;;;9.70;99.90;;;;;;5022268;28;20251;-70
2022/02/25 09:12:57;;;;;;;16.87;3.77;;;10.00;99.90;;;;;;5024696;28;20231;-69
2022/02/25 09:15:28;;;;;;;13.73;3.20;;;10.10;99.90;;;;;;5015926;28;20288;-70
2022/02/25 09:17:58;;;;;;;17.40;3.70;;;10.40;99.90;;;;;;5017969;28;20201;-70
2022/02/25 09:20:28;;;;;;;16.33;3.33;;;10.60;99.90;;;;;;5034814;28;20201;-70
2022/02/25 09:22:58;;;;;;;15.53;3.93;;;10.50;99.90;;;;;;5029400;28;20229;-70
2022/02/25 09:25:28;;;;;;;11.47;3.43;;;10.40;99.90;;;;;;5024814;28;20201;-70
2022/02/25 09:27:59;;;;;;;14.57;3.80;;;10.40;99.90;;;;;;5017442;28;20193;-70
2022/02/25 09:30:29;;;;;;;12.37;3.40;;;10.60;99.90;;;;;;5035080;28;20196;-70
2022/02/25 09:32:58;;;;;;;10.60;3.17;;;10.90;99.90;;;;;;5025035;28;20272;-70
2022/02/25 09:35:27;;;;;;;8.83;3.20;;;11.10;99.90;;;;;;5030418;28;20190;-70
2022/02/25 09:37:55;;;;;;;15.23;3.10;;;10.90;99.90;;;;;;5030220;28;20202;-70
2022/02/25 09:40:25;;;;;;;17.27;3.50;;;11.00;99.90;;;;;;5028978;28;20197;-70
2022/02/25 09:42:54;;;;;;;15.50;3.50;;;11.20;99.90;;;;;;5010692;28;20627;-70
2022/02/25 09:45:25;;;;;;;11.10;3.30;;;11.40;99.90;;;;;;5020245;28;20198;-70
2022/02/25 09:47:53;;;;;;;12.07;3.23;;;11.30;99.90;;;;;;5027796;28;20201;-70
2022/02/25 09:50:24;;;;;;;11.90;3.37;;;11.00;99.90;;;;;;5029321;28;20208;-70
2022/02/25 09:52:55;;;;;;;14.17;3.63;;;10.60;99.90;;;;;;5026866;28;20198;-70
2022/02/25 09:55:27;;;;;;;11.20;3.30;;;10.40;99.90;;;;;;5019423;28;20269;-69
2022/02/25 09:57:59;;;;;;;12.90;3.20;;;10.00;99.90;;;;;;5021794;28;20205;-70
2022/02/25 10:00:31;;;;;;;15.17;3.20;;;9.50;99.90;;;;;;5026209;28;20198;-70
2022/02/25 10:03:02;;;;;;;15.80;3.40;;;9.40;99.90;;;;;;5020716;28;20207;-70
2022/02/25 10:05:35;;;;;;;13.73;3.53;;;9.50;99.90;;;;;;5024644;28;20666;-69
2022/02/25 10:08:09;;;;;;;10.33;3.70;;;9.70;99.90;;;;;;5023125;28;20279;-70
2022/02/25 10:10:43;;;;;;;8.13;3.00;;;10.00;99.90;;;;;;5025407;28;20201;-70
2022/02/25 10:13:13;;;;;;;17.27;3.10;;;10.40;99.90;;;;;;5021629;28;20236;-71
2022/02/25 10:15:44;;;;;;;16.20;4.03;;;10.80;99.90;;;;;;5027308;28;20225;-69
2022/02/25 10:18:14;;;;;;;11.67;3.07;;;11.20;99.90;;;;;;5025701;28;20227;-69
2022/02/25 10:20:44;;;;;;;14.93;3.40;;;11.80;99.90;;;;;;5022986;28;20186;-69
2022/02/25 10:23:22;;;;;;;9.50;3.00;;;12.40;99.90;;;;;;5031275;28;20259;-69
2022/02/25 10:25:51;;;;;;;11.33;2.80;;;12.90;99.90;;;;;;5026085;28;20574;-69
2022/02/25 10:28:32;;;;;;;9.87;2.60;;;13.00;99.90;;;;;;5023516;28;20190;-69
2022/02/25 10:31:22;;;;;;;10.43;2.80;;;12.80;99.90;;;;;;5035644;28;20202;-69
2022/02/25 10:34:03;;;;;;;11.97;3.17;;;12.50;99.90;;;;;;5032164;28;20221;-69
2022/02/25 10:36:47;;;;;;;10.40;2.67;;;12.60;99.90;;;;;;5028110;28;20723;-69
2022/02/25 10:39:19;;;;;;;10.60;2.93;;;12.50;99.90;;;;;;5038959;28;20200;-69
2022/02/25 10:42:03;;;;;;;9.73;2.70;;;12.70;99.90;;;;;;5023351;28;20263;-69
2022/02/25 10:44:41;;;;;;;11.07;2.60;;;13.50;99.90;;;;;;5026034;28;20189;-69
2022/02/25 10:47:20;;;;;;;9.33;2.57;;;13.40;99.90;;;;;;5033877;28;20200;-69
2022/02/25 10:49:51;;;;;;;13.67;4.20;;;13.20;99.90;;;;;;5035189;28;20186;-69
2022/02/25 10:52:22;;;;;;;17.97;4.83;;;12.60;99.90;;;;;;5027894;28;20239;-70
2022/02/25 10:54:50;;;;;;;7.30;3.00;;;12.30;99.90;;;;;;5027374;28;20226;-69
2022/02/25 10:57:25;;;;;;;13.53;3.23;;;11.80;99.90;;;;;;5034831;28;20185;-69
2022/02/25 10:59:56;;;;;;;13.03;2.90;;;11.80;99.90;;;;;;5025199;28;20271;-69
2022/02/25 11:02:32;;;;;;;10.63;3.27;;;11.60;99.90;;;;;;5021637;28;20221;-69
2022/02/25 11:05:37;;;;;;;11.67;2.90;;;11.90;99.90;;;;;;5019518;28;20208;-69
2022/02/25 11:08:11;;;;;;;12.50;2.77;;;12.70;99.90;;;;;;5036588;28;20232;-70
2022/02/25 11:10:39;;;;;;;15.30;3.73;;;13.40;99.90;;;;;;5020060;28;20228;-69
2022/02/25 11:13:12;;;;;;;12.87;3.43;;;13.20;99.90;;;;;;5031665;28;20256;-70
2022/02/25 11:15:43;;;;;;;10.30;3.00;;;13.10;99.90;;;;;;5026923;28;20209;-69
2022/02/25 11:18:13;;;;;;;10.93;3.17;;;12.70;99.90;;;;;;5026604;28;20201;-69
2022/02/25 11:20:42;;;;;;;17.00;3.90;;;12.40;99.90;;;;;;5034284;28;20254;-69
2022/02/25 11:23:13;;;;;;;13.13;3.57;;;12.10;99.90;;;;;;5028593;28;20284;-69
2022/02/25 11:25:44;;;;;;;16.37;3.50;;;11.60;99.90;;;;;;5020229;28;20255;-69
2022/02/25 11:28:15;;;;;;;9.43;3.13;;;11.70;99.90;;;;;;5007558;28;20212;-70
2022/02/25 11:30:49;;;;;;;6.67;2.73;;;11.70;99.90;;;;;;5016797;28;20202;-69
2022/02/25 11:33:21;;;;;;;8.80;3.13;;;11.90;99.90;;;;;;5027135;28;20292;-69
2022/02/25 11:35:52;;;;;;;10.07;3.23;;;11.80;99.90;;;;;;5035130;28;20213;-69
2022/02/25 11:38:28;;;;;;;19.40;3.30;;;11.30;99.90;;;;;;5023664;28;20192;-71
2022/02/25 11:41:00;;;;;;;12.20;3.07;;;10.70;99.90;;;;;;5018053;28;20240;-70
2022/02/25 11:43:47;;;;;;;14.43;3.10;;;11.00;99.90;;;;;;5022628;28;20214;-69
2022/02/25 11:46:23;;;;;;;12.37;3.37;;;11.10;99.90;;;;;;5016687;28;20316;-69
2022/02/25 11:48:55;;;;;;;11.53;2.80;;;10.80;99.90;;;;;;5028067;28;20201;-70
2022/02/25 11:51:35;;;;;;;13.27;2.93;;;10.40;99.90;;;;;;5020531;28;20229;-71
2022/02/25 11:54:36;;;;;;;14.33;4.20;;;10.00;99.90;;;;;;5019105;28;20201;-71
2022/02/25 11:57:25;;;;;;;13.60;3.10;;;9.60;99.90;;;;;;4975642;28;20210;-72
2022/02/25 12:00:19;;;;;;;8.50;3.00;;;9.20;99.90;;;;;;5018214;28;20209;-69
2022/02/25 12:03:11;;;;;;;12.37;2.77;;;9.10;99.90;;;;;;5020776;28;20284;-71
2022/02/25 12:05:46;;;;;;;10.70;2.70;;;9.10;99.90;;;;;;5020754;28;20209;-71
2022/02/25 12:08:32;;;;;;;9.97;2.67;;;9.30;99.90;;;;;;5016542;28;20232;-71
2022/02/25 12:11:29;;;;;;;11.00;3.13;;;9.40;99.90;;;;;;5027226;28;20205;-71
2022/02/25 12:13:58;;;;;;;9.70;2.70;;;9.80;99.90;;;;;;5024778;28;20285;-72
2022/02/25 12:16:28;;;;;;;13.10;2.70;;;10.30;99.90;;;;;;5019407;28;21281;-69
2022/02/25 12:19:09;;;;;;;8.97;3.20;;;11.10;99.90;;;;;;5013257;28;20193;-72
2022/02/25 12:21:45;;;;;;;12.10;3.10;;;12.00;99.90;;;;;;5031268;28;20198;-72
2022/02/25 12:24:15;;;;;;;12.33;2.50;;;12.20;99.90;;;;;;5017911;28;20301;-71
2022/02/25 12:26:55;;;;;;;7.13;2.20;;;11.80;99.90;;;;;;5008233;28;20256;-70
2022/02/25 12:29:32;;;;;;;8.77;2.70;;;11.50;99.90;;;;;;5031695;28;20231;-71
2022/02/25 12:32:00;;;;;;;11.40;3.27;;;10.90;99.90;;;;;;5023797;28;20229;-71
2022/02/25 12:34:29;;;;;;;7.90;2.50;;;10.40;99.90;;;;;;5019063;28;20202;-71
2022/02/25 12:37:03;;;;;;;13.80;3.00;;;10.00;99.90;;;;;;5027217;28;20190;-71
2022/02/25 12:39:32;;;;;;;13.17;3.00;;;9.60;99.90;;;;;;5030984;28;20233;-71
2022/02/25 12:42:06;;;;;;;8.87;2.10;;;9.40;99.90;;;;;;5022474;28;20247;-70
2022/02/25 12:44:37;;;;;;;11.03;2.37;;;9.20;99.90;;;;;;5015481;28;20894;-71
2022/02/25 12:47:08;;;;;;;7.27;2.63;;;9.10;99.90;;;;;;5021910;28;20267;-71
2022/02/25 12:49:41;;;;;;;10.43;2.60;;;8.90;99.90;;;;;;5026251;28;20193;-71
2022/02/25 12:52:13;;;;;;;14.20;3.03;;;8.80;99.90;;;;;;5028051;28;20730;-70
2022/02/25 12:54:42;;;;;;;11.27;2.70;;;9.00;99.90;;;;;;5026217;28;20199;-70
2022/02/25 12:57:12;;;;;;;12.60;2.90;;;9.20;99.90;;;;;;5035136;28;20288;-71
2022/02/25 12:59:45;;;;;;;9.83;2.77;;;9.50;99.90;;;;;;5032425;28;20272;-71
2022/02/25 13:02:16;;;;;;;6.57;2.97;;;9.90;99.90;;;;;;5023121;28;20559;-71
2022/02/25 13:04:46;;;;;;;8.73;3.23;;;10.30;99.90;;;;;;5023859;28;20205;-71
2022/02/25 13:07:18;;;;;;;14.70;3.77;;;10.50;99.90;;;;;;5025568;28;20233;-71
2022/02/25 13:09:47;;;;;;;14.77;4.63;;;10.30;99.90;;;;;;5035442;28;20235;-71